Terminal Aerodrome Forecast
Issued by NWS

Home | Current Version | Previous Version | Text Only | Print | Product List | Glossary On
Versions: 1 2 3 4 5 6 7 8 9 10 11 12 13 14 15 16
000
FTUS42 KGSP 010520
TAFGMU
TAF
KGMU 010520Z 0106/0206 24005KT P6SM SCT008 BKN070
      TEMPO 0106/0110 4SM BR BKN008 OVC070
     FM011300 24009KT P6SM SCT060
     FM011900 24012G20KT P6SM BKN060 PROB30 0119/0123 4SM TSRA
      BKN040CB
     FM020100 26009KT P6SM BKN060
     FM020300 25003KT P6SM BKN060=

USA.gov is the U.S. government's official web portal to all federal, state and local government web resources and services.